Time;durP1;ratioP1;P1;durP2;ratioP2;P2;SDS_P1;SDS_P2;PMS_P1;PMS_P2;Temp;Humidity;BMP_temperature;BMP_pressure;BME280_temperature;BME280_humidity;BME280_pressure;Samples;Min_cycle;Max_cycle;Signal;HPM_P1;HPM_P2
2023/07/31 00:03:10;;;;;;;;;;;;;;;19.68;60.53;99215.47;10286233;28;1902;-66
2023/07/31 00:13:24;;;;;;;;;;;;;;;19.68;60.38;99204.06;10291110;28;666;-66
2023/07/31 00:24:11;;;;;;;;;;;;;;;19.67;60.54;99197.03;10215357;28;1914;-66
2023/07/31 00:34:51;;;;;;;;;;;;;;;19.67;60.58;99191.75;10236076;28;1075;-66
2023/07/31 00:39:50;;;;;;;;;;;;;;;19.66;60.53;99190.03;10290923;28;1103;-66
2023/07/31 00:44:49;;;;;;;;;;;;;;;19.65;60.62;99191.84;10290995;28;1951;-66
2023/07/31 00:55:34;;;;;;;;;;;;;;;19.65;60.49;99183.91;10163902;28;1414;-66
2023/07/31 01:00:39;;;;;;;;;;;;;;;19.65;60.54;99185.72;10263848;28;1339;-66
2023/07/31 01:05:51;;;;;;;;;;;;;;;19.64;60.65;99186.63;10288473;28;1910;-66
2023/07/31 01:11:00;;;;;;;;;;;;;;;;;;;;;
2023/07/31 01:16:03;;;;;;;;;;;;;;;19.63;60.61;99185.78;10287422;28;946;-66
2023/07/31 01:21:03;;;;;;;;;;;;;;;19.63;60.64;99180.50;10289579;28;1194;-66
2023/07/31 01:36:35;;;;;;;;;;;;;;;19.62;60.56;99183.22;10287319;28;722;-66
2023/07/31 01:52:13;;;;;;;;;;;;;;;19.59;60.58;99192.19;10256916;28;1405;-66
2023/07/31 02:08:18;;;;;;;;;;;;;;;19.59;60.74;99183.41;10223202;28;1369;-66
2023/07/31 02:13:14;;;;;;;;;;;;;;;19.57;60.66;99175.59;10244804;28;1192;-66
2023/07/31 02:18:20;;;;;;;;;;;;;;;19.57;60.56;99174.72;10245411;28;1280;-66
2023/07/31 02:23:16;;;;;;;;;;;;;;;19.57;60.68;99164.13;10244854;28;1973;-65
2023/07/31 02:28:25;;;;;;;;;;;;;;;19.56;60.66;99165.94;10246339;28;849;-66
2023/07/31 02:33:26;;;;;;;;;;;;;;;19.56;60.70;99165.09;10245825;28;1902;-66
2023/07/31 02:48:50;;;;;;;;;;;;;;;19.54;60.79;99159.03;10081981;29;1589;-66
2023/07/31 02:53:59;;;;;;;;;;;;;;;19.54;60.64;99153.75;10210042;28;1121;-66
2023/07/31 02:59:07;;;;;;;;;;;;;;;19.53;60.64;99146.78;10244297;28;1300;-66
2023/07/31 03:14:49;;;;;;;;;;;;;;;19.51;60.75;99144.22;10160401;28;1474;-65
2023/07/31 03:25:33;;;;;;;;;;;;;;;;;;;;;
2023/07/31 03:30:59;;;;;;;;;;;;;;;;;;;;;
2023/07/31 03:36:02;;;;;;;;;;;;;;;19.49;60.66;99130.22;10282132;28;2061;-66
2023/07/31 03:41:06;;;;;;;;;;;;;;;19.48;60.66;99123.25;10292111;28;1184;-66
2023/07/31 03:46:18;;;;;;;;;;;;;;;19.49;60.74;99130.22;10281538;28;1910;-66
2023/07/31 03:51:29;;;;;;;;;;;;;;;19.47;60.77;99121.56;10277679;28;1384;-66
2023/07/31 03:56:32;;;;;;;;;;;;;;;19.47;60.76;99126.84;10291469;28;1478;-66
2023/07/31 04:06:56;;;;;;;;;;;;;;;19.46;60.70;99125.13;10283112;28;1947;-66
2023/07/31 04:17:10;;;;;;;;;;;;;;;19.44;60.71;99122.59;10290991;28;615;-66
2023/07/31 04:22:13;;;;;;;;;;;;;;;19.44;60.83;99112.03;10291105;28;1171;-66
2023/07/31 04:43:26;;;;;;;;;;;;;;;19.42;60.59;99113.91;10290495;28;1902;-66
2023/07/31 04:49:17;;;;;;;;;;;;;;;19.42;60.82;99121.00;10287697;28;1213;-65
2023/07/31 04:59:12;;;;;;;;;;;;;;;19.42;60.75;99103.34;10288529;28;793;-66
2023/07/31 05:04:21;;;;;;;;;;;;;;;19.41;60.75;99101.66;10291471;28;1894;-67
2023/07/31 05:14:40;;;;;;;;;;;;;;;19.44;60.70;99095.28;10207013;28;992;-66
2023/07/31 05:31:07;;;;;;;;;;;;;;;19.41;60.80;99077.88;10200951;28;1433;-66
2023/07/31 05:35:47;;;;;;;;;;;;;;;19.42;60.87;99079.56;10201459;28;1510;-66
2023/07/31 05:46:09;;;;;;;;;;;;;;;19.40;61.01;99076.16;10199491;28;1889;-65
2023/07/31 06:18:07;;;;;;;;;;;;;;;19.35;61.09;99043.84;10004889;29;1479;-66
2023/07/31 06:23:07;;;;;;;;;;;;;;;19.37;61.16;99035.84;10123162;28;1905;-66
2023/07/31 06:28:15;;;;;;;;;;;;;;;19.37;61.03;99039.34;10285666;28;1183;-66
2023/07/31 06:43:45;;;;;;;;;;;;;;;19.36;61.22;99032.38;10283530;28;1906;-66
2023/07/31 06:48:59;;;;;;;;;;;;;;;19.34;61.21;99015.75;10284184;28;879;-66
2023/07/31 06:59:24;;;;;;;;;;;;;;;19.33;61.20;99014.03;10275856;28;1476;-66
2023/07/31 07:04:28;;;;;;;;;;;;;;;19.33;61.29;99014.03;10284628;28;1941;-67
2023/07/31 07:09:43;;;;;;;;;;;;;;;19.35;61.43;99022.72;10241421;28;1517;-66
2023/07/31 07:19:55;;;;;;;;;;;;;;;19.35;61.55;99020.06;10242376;28;1419;-65
2023/07/31 07:25:08;;;;;;;;;;;;;;;19.35;61.57;99011.31;10244476;28;1910;-66
2023/07/31 07:51:36;;;;;;;;;;;;;;;;;;;;;
2023/07/31 07:56:36;;;;;;;;;;;;;;;19.36;61.68;99015.63;10111332;28;1412;-64
2023/07/31 08:01:38;;;;;;;;;;;;;;;19.38;61.67;99016.41;10118516;28;1253;-67
2023/07/31 08:12:23;;;;;;;;;;;;;;;;;;;;;
2023/07/31 08:22:43;;;;;;;;;;;;;;;19.38;61.76;98993.47;10204109;28;1910;-66
2023/07/31 08:27:42;;;;;;;;;;;;;;;19.37;61.63;98994.41;10209519;28;1262;-65
2023/07/31 08:32:44;;;;;;;;;;;;;;;19.38;61.72;98982.88;10209507;28;1191;-66
2023/07/31 08:48:27;;;;;;;;;;;;;;;19.37;61.62;98978.56;10206056;28;1304;-66
2023/07/31 09:04:14;;;;;;;;;;;;;;;19.38;61.57;98982.88;10164222;28;1960;-67
2023/07/31 09:09:24;;;;;;;;;;;;;;;;;;;;;
2023/07/31 09:19:38;;;;;;;;;;;;;;;19.43;61.84;98980.81;10248442;28;678;-67
2023/07/31 09:29:49;;;;;;;;;;;;;;;19.43;61.83;98978.16;10247557;28;608;-68
2023/07/31 09:40:14;;;;;;;;;;;;;;;19.40;62.32;98978.38;10123435;28;1366;-67
2023/07/31 09:50:33;;;;;;;;;;;;;;;19.43;62.10;98977.31;10185842;28;1547;-67
2023/07/31 10:06:52;;;;;;;;;;;;;;;19.43;61.97;98961.47;10235873;28;1890;-68
2023/07/31 10:11:41;;;;;;;;;;;;;;;19.44;61.91;98956.09;10277432;28;1774;-67
2023/07/31 10:16:46;;;;;;;;;;;;;;;19.45;62.01;98949.84;10286043;28;1184;-68
2023/07/31 10:21:48;;;;;;;;;;;;;;;19.43;62.20;98950.91;10286330;28;1250;-67
2023/07/31 10:37:48;;;;;;;;;;;;;;;19.43;62.45;98935.88;10042384;29;1499;-67
2023/07/31 10:53:34;;;;;;;;;;;;;;;19.49;62.68;98938.16;10182921;28;1402;-68
2023/07/31 11:09:11;;;;;;;;;;;;;;;19.48;63.46;98939.09;10273034;28;1493;-67
2023/07/31 11:14:14;;;;;;;;;;;;;;;19.47;63.41;98926.81;10284268;28;1241;-67
2023/07/31 11:19:16;;;;;;;;;;;;;;;19.46;63.52;98930.41;10284346;28;929;-67
2023/07/31 11:29:15;;;;;;;;;;;;;;;19.44;63.33;98936.72;10283483;28;785;-68
2023/07/31 11:34:11;;;;;;;;;;;;;;;19.42;63.29;98939.47;10265329;28;1195;-67
2023/07/31 11:49:52;;;;;;;;;;;;;;;19.39;63.35;98925.63;10270805;28;1455;-67
2023/07/31 11:55:09;;;;;;;;;;;;;;;19.40;63.25;98922.88;10283456;28;1238;-67
2023/07/31 12:10:51;;;;;;;;;;;;;;;19.40;63.31;98901.72;10141581;28;1426;-67
2023/07/31 12:15:53;;;;;;;;;;;;;;;19.40;63.31;98906.16;10209915;28;1270;-68
2023/07/31 12:21:16;;;;;;;;;;;;;;;19.38;63.40;98915.97;10190458;28;1010;-68
2023/07/31 12:26:09;;;;;;;;;;;;;;;19.37;63.35;98917.78;10207731;28;1966;-68
2023/07/31 12:31:08;;;;;;;;;;;;;;;19.41;63.33;98926.34;10209857;28;1207;-68
2023/07/31 12:36:30;;;;;;;;;;;;;;;;;;;;;
2023/07/31 12:41:32;;;;;;;;;;;;;;;19.40;63.31;98899.09;10200171;28;1093;-68
2023/07/31 12:46:28;;;;;;;;;;;;;;;19.42;63.28;98917.50;10210320;28;2368;-68
2023/07/31 12:51:24;;;;;;;;;;;;;;;19.41;63.15;98905.22;10209893;28;877;-68
2023/07/31 12:56:20;;;;;;;;;;;;;;;19.39;63.05;98889.47;10208481;28;805;-68
2023/07/31 13:01:16;;;;;;;;;;;;;;;19.36;63.12;98884.38;10208333;28;923;-69
2023/07/31 13:06:12;;;;;;;;;;;;;;;19.35;63.01;98881.81;10208204;28;1961;-68
2023/07/31 13:11:08;;;;;;;;;;;;;;;19.33;63.09;98876.63;10236949;28;1312;-69
2023/07/31 13:16:04;;;;;;;;;;;;;;;19.32;62.95;98882.03;10248615;28;983;-69
2023/07/31 13:21:00;;;;;;;;;;;;;;;19.32;62.98;98868.81;10248387;28;861;-68
2023/07/31 13:25:55;;;;;;;;;;;;;;;19.30;62.93;98874.19;10248256;28;1910;-69
2023/07/31 13:30:51;;;;;;;;;;;;;;;19.31;62.84;98854.75;10246844;28;880;-69
2023/07/31 13:35:48;;;;;;;;;;;;;;;19.31;62.85;98851.25;10246662;28;880;-69
2023/07/31 13:40:44;;;;;;;;;;;;;;;19.33;63.12;98857.28;10248707;28;884;-66
2023/07/31 13:45:40;;;;;;;;;;;;;;;19.35;63.58;98855.41;10246182;28;1890;-66
2023/07/31 13:50:36;;;;;;;;;;;;;;;19.35;63.86;98852.75;10247815;28;853;-66
2023/07/31 13:55:31;;;;;;;;;;;;;;;19.33;63.85;98839.63;10247577;28;802;-66
2023/07/31 14:00:28;;;;;;;;;;;;;;;19.34;63.96;98838.72;10246836;28;935;-67
2023/07/31 14:05:24;;;;;;;;;;;;;;;19.35;64.10;98834.25;10247237;28;1952;-66
2023/07/31 14:10:20;;;;;;;;;;;;;;;19.34;64.20;98825.50;10246032;28;1157;-66
2023/07/31 14:15:16;;;;;;;;;;;;;;;19.33;64.23;98834.34;10246954;28;834;-67
2023/07/31 14:20:12;;;;;;;;;;;;;;;19.33;64.14;98821.13;10245434;28;941;-67
2023/07/31 14:25:10;;;;;;;;;;;;;;;19.35;64.23;98816.59;10244890;28;1966;-68
2023/07/31 14:30:05;;;;;;;;;;;;;;;19.35;64.21;98821.88;10245338;28;970;-66
2023/07/31 14:35:01;;;;;;;;;;;;;;;19.38;64.07;98812.91;10245095;28;988;-66
2023/07/31 14:39:57;;;;;;;;;;;;;;;19.40;64.13;98814.50;10245661;28;812;-66
2023/07/31 14:44:53;;;;;;;;;;;;;;;19.44;64.00;98826.59;10246045;28;1894;-67
2023/07/31 14:49:49;;;;;;;;;;;;;;;19.42;64.06;98806.50;10244782;28;924;-67
2023/07/31 14:54:45;;;;;;;;;;;;;;;19.42;64.00;98795.94;10228168;28;753;-67
2023/07/31 14:59:41;;;;;;;;;;;;;;;19.40;64.12;98803.09;10244553;28;864;-67
2023/07/31 15:04:37;;;;;;;;;;;;;;;19.36;64.30;98797.19;10244331;28;1901;-67
2023/07/31 15:09:32;;;;;;;;;;;;;;;19.36;64.12;98786.63;10245511;28;1330;-67
2023/07/31 15:14:30;;;;;;;;;;;;;;;19.37;64.21;98800.66;10245996;28;872;-67
2023/07/31 15:19:26;;;;;;;;;;;;;;;19.33;64.09;98792.06;10243970;28;970;-67
2023/07/31 15:24:22;;;;;;;;;;;;;;;19.34;64.07;98790.31;10243252;28;1973;-67
2023/07/31 15:29:19;;;;;;;;;;;;;;;19.34;64.17;98791.16;10243926;28;863;-67
2023/07/31 15:34:15;;;;;;;;;;;;;;;19.33;64.04;98776.22;10248427;28;1013;-67
2023/07/31 15:39:11;;;;;;;;;;;;;;;19.32;64.13;98763.13;10252537;28;871;-67
2023/07/31 15:44:07;;;;;;;;;;;;;;;19.32;64.13;98748.13;10252250;28;1902;-67
2023/07/31 15:49:02;;;;;;;;;;;;;;;19.31;64.13;98762.28;10251608;28;873;-67
2023/07/31 15:53:58;;;;;;;;;;;;;;;19.31;64.10;98758.75;10251349;28;932;-67
2023/07/31 15:58:57;;;;;;;;;;;;;;;19.29;64.09;98740.38;10252344;28;849;-67
2023/07/31 16:03:53;;;;;;;;;;;;;;;19.29;64.26;98727.19;10252639;28;1906;-66
2023/07/31 16:08:49;;;;;;;;;;;;;;;19.28;64.25;98722.81;10250804;28;1516;-67
2023/07/31 16:24:14;;;;;;;;;;;;;;;19.26;64.20;98698.31;10249602;28;1973;-67
2023/07/31 16:29:19;;;;;;;;;;;;;;;19.26;64.21;98700.97;10250004;28;879;-67
2023/07/31 16:50:26;;;;;;;;;;;;;;;19.23;64.01;98675.59;10227233;28;1579;-67
2023/07/31 17:32:08;;;;;;;;;;;;;;;19.21;63.76;98626.44;9085359;23;2564;-67
2023/07/31 17:37:07;;;;;;;;;;;;;;;19.22;63.67;98622.84;10329306;28;794;-67
2023/07/31 17:42:03;;;;;;;;;;;;;;;19.21;63.87;98619.38;10329705;28;930;-72
2023/07/31 17:47:02;;;;;;;;;;;;;;;19.19;63.54;98607.22;10327413;28;1963;-69
2023/07/31 17:57:34;;;;;;;;;;;;;;;19.15;63.66;98589.88;10328359;28;1347;-69
2023/07/31 18:02:35;;;;;;;;;;;;;;;19.14;63.54;98596.09;10327773;28;758;-69
2023/07/31 18:07:43;;;;;;;;;;;;;;;19.13;63.50;98599.72;10326108;28;1890;-69
2023/07/31 18:12:39;;;;;;;;;;;;;;;19.13;63.45;98581.22;10324664;28;1497;-69
2023/07/31 18:17:38;;;;;;;;;;;;;;;19.12;63.47;98590.91;10323383;28;1471;-69
2023/07/31 18:22:55;;;;;;;;;;;;;;;19.10;63.43;98582.28;10326976;28;1283;-69
2023/07/31 18:28:04;;;;;;;;;;;;;;;19.10;63.56;98578.75;10327952;28;847;-68
2023/07/31 18:33:09;;;;;;;;;;;;;;;19.08;63.39;98570.97;10324077;28;1434;-68
2023/07/31 18:38:04;;;;;;;;;;;;;;;19.08;63.32;98560.41;10326878;28;867;-68
2023/07/31 18:43:04;;;;;;;;;;;;;;;19.08;63.37;98549.00;10324979;28;1977;-68
2023/07/31 18:48:00;;;;;;;;;;;;;;;19.06;63.40;98541.16;10326771;28;820;-69
2023/07/31 18:53:01;;;;;;;;;;;;;;;19.07;63.31;98534.06;10325299;28;973;-68
2023/07/31 18:58:00;;;;;;;;;;;19.70;70.30;;;19.05;63.16;98516.53;10325391;28;1298;-68
2023/07/31 19:02:56;;;;;;;;;;;20.10;71.50;;;19.05;63.11;98508.63;10326434;28;1914;-68
2023/07/31 19:07:55;;;;;;;;;;;19.90;72.00;;;19.05;63.08;98507.78;10317141;28;868;-68
2023/07/31 19:12:55;;;;;;;;;;;19.90;72.10;;;19.05;63.31;98508.63;10319736;28;1119;-69
2023/07/31 19:18:00;;;;;;;;;;;19.80;72.00;;;19.08;63.01;98488.25;10325232;28;781;-67
2023/07/31 19:53:28;;;;;;;;;;;19.80;71.90;;;19.01;63.13;98440.28;10933165;22;1920;-68
2023/07/31 19:58:23;;;;;;;;;;;19.80;72.00;;;19.02;63.08;98441.94;10283106;28;939;-69
2023/07/31 20:03:18;;;;;;;;;;;19.80;71.90;;;19.01;62.89;98425.25;10278484;28;1978;-69
2023/07/31 20:08:14;;;;;;;;;;;19.80;71.90;;;19.00;62.93;98415.66;10197657;28;12746;-68
2023/07/31 20:13:09;;;;;;;;;;;19.80;71.80;;;19.00;63.04;98414.81;10200774;28;1173;-67
2023/07/31 20:18:05;;;;;;;;;;;19.70;71.70;;;19.01;62.76;98421.78;10201393;28;12837;-68
2023/07/31 20:23:07;;;;;;;;;;;19.80;71.80;;;18.99;63.01;98416.63;10208563;28;1914;-68
2023/07/31 20:28:03;;;;;;;;;;;19.80;71.80;;;19.01;62.88;98417.34;10209052;28;1201;-69
2023/07/31 20:33:00;;;;;;;;;;;19.70;71.60;;;18.99;62.89;98386.72;10207196;28;825;-68
2023/07/31 20:37:55;;;;;;;;;;;19.70;71.60;;;18.99;62.86;98398.16;10208559;28;896;-67
2023/07/31 20:42:52;;;;;;;;;;;19.70;71.60;;;18.99;62.81;98392.88;10207507;28;1170;-67
2023/07/31 20:47:47;;;;;;;;;;;19.70;71.60;;;18.98;62.83;98391.16;10207998;28;1984;-67
2023/07/31 20:52:43;;;;;;;;;;;19.70;71.60;;;18.99;62.92;98397.28;10208438;28;1296;-67
2023/07/31 20:57:38;;;;;;;;;;;19.70;71.60;;;18.99;62.90;98397.28;10208217;28;854;-68
2023/07/31 21:02:33;;;;;;;;;;;19.70;71.60;;;18.99;62.73;98390.22;10207867;28;1115;-69
2023/07/31 21:07:29;;;;;;;;;;;19.70;71.80;;;19.02;63.17;98389.13;10208935;28;1910;-70
2023/07/31 21:12:28;;;;;;;;;;;19.80;72.60;;;19.03;63.36;98389.03;10207633;28;1011;-70
2023/07/31 21:17:27;;;;;;;;;;;19.70;72.90;;;19.04;63.41;98368.75;10207476;28;960;-70
2023/07/31 21:22:24;;;;;;;;;;;19.70;73.10;;;19.03;63.50;98352.06;10208664;28;872;-70
2023/07/31 21:27:23;;;;;;;;;;;19.80;73.40;;;19.05;63.54;98354.63;10207518;28;1914;-70
2023/07/31 21:32:18;;;;;;;;;;;19.80;73.30;;;19.05;63.48;98346.69;10206270;28;869;-69
2023/07/31 21:37:20;;;;;;;;;;;19.80;73.50;;;19.07;63.90;98338.63;10207173;28;759;-70
2023/07/31 21:42:15;;;;;;;;;;;19.80;74.00;;;19.05;63.86;98321.13;10207475;28;905;-70
2023/07/31 21:47:11;;;;;;;;;;;19.80;73.90;;;19.07;63.89;98318.34;10207169;28;1906;-70
2023/07/31 21:52:06;;;;;;;;;;;19.80;74.00;;;19.07;63.97;98301.66;10206548;28;1126;-70
2023/07/31 21:57:02;;;;;;;;;;;19.80;74.00;;;19.06;63.89;98287.63;10205925;28;978;-70
2023/07/31 22:01:58;;;;;;;;;;;19.80;74.00;;;19.05;64.01;98294.72;10205780;28;913;-70
2023/07/31 22:06:56;;;;;;;;;;;19.80;74.00;;;19.05;63.93;98278.88;10206040;28;1914;-71
2023/07/31 22:11:51;;;;;;;;;;;19.80;73.90;;;19.05;64.01;98259.53;10206152;28;829;-70
2023/07/31 22:16:50;;;;;;;;;;;19.80;74.00;;;19.05;64.04;98248.97;10206422;28;871;-70
2023/07/31 22:21:46;;;;;;;;;;;19.80;74.20;;;19.05;64.04;98233.13;10205815;28;946;-70
2023/07/31 22:26:41;;;;;;;;;;;19.80;74.10;;;19.05;63.89;98233.13;10205370;28;1922;-70
2023/07/31 22:31:40;;;;;;;;;;;19.80;74.00;;;19.05;63.96;98219.94;10205262;28;957;-70
2023/07/31 22:36:36;;;;;;;;;;;19.80;74.00;;;19.05;63.90;98212.00;10203087;28;1538;-70
2023/07/31 22:41:31;;;;;;;;;;;19.80;73.90;;;19.03;63.96;98198.06;10204736;28;830;-70
2023/07/31 22:46:26;;;;;;;;;;;19.80;74.00;;;19.05;64.03;98182.97;10204700;28;1979;-70
2023/07/31 22:51:22;;;;;;;;;;;19.80;73.90;;;19.03;63.85;98183.06;10203988;28;1341;-70
2023/07/31 22:56:21;;;;;;;;;;;19.80;73.90;;;19.04;64.00;98181.25;10205077;28;1150;-70
2023/07/31 23:01:20;;;;;;;;;;;19.80;73.90;;;19.04;63.97;98174.16;10204129;28;1309;-70
2023/07/31 23:06:15;;;;;;;;;;;19.80;73.90;;;19.03;63.93;98158.47;10204781;28;1982;-70
2023/07/31 23:11:10;;;;;;;;;;;19.70;73.90;;;19.03;63.92;98142.63;10204790;28;832;-70
2023/07/31 23:16:06;;;;;;;;;;;19.80;74.00;;;19.03;63.91;98134.69;10204128;28;896;-70
2023/07/31 23:21:01;;;;;;;;;;;19.80;74.00;;;19.04;63.88;98126.63;10204558;28;809;-70
2023/07/31 23:26:00;;;;;;;;;;;19.80;73.80;;;19.02;64.06;98120.66;10203739;28;1918;-70
2023/07/31 23:30:55;;;;;;;;;;;19.80;73.80;;;19.02;63.99;98110.09;10203773;28;828;-70
2023/07/31 23:35:50;;;;;;;;;;;19.70;73.70;;;19.01;63.96;98097.81;10203075;28;925;-70
2023/07/31 23:40:49;;;;;;;;;;;19.70;73.70;;;19.02;63.99;98070.50;10203345;28;1279;-70
2023/07/31 23:45:44;;;;;;;;;;;19.70;73.60;;;19.01;63.84;98070.59;10203700;28;1914;-70
2023/07/31 23:50:40;;;;;;;;;;;19.70;73.60;;;19.02;63.97;98045.84;10203400;28;964;-70
2023/07/31 23:55:35;;;;;;;;;;;19.70;73.70;;;19.01;63.76;98042.38;10207299;28;1287;-70
